sensor_id;sensor_type;location;lat;lon;timestamp;P1;durP1;ratioP1;P2;durP2;ratioP2
70920;SDS011;58572;48.110;19.838;2023-07-22T00:01:01;5.40;;;3.35;;
70920;SDS011;58572;48.110;19.838;2023-07-22T00:03:28;6.97;;;3.20;;
70920;SDS011;58572;48.110;19.838;2023-07-22T00:06:04;4.15;;;2.88;;
70920;SDS011;58572;48.110;19.838;2023-07-22T00:08:32;4.75;;;3.60;;
70920;SDS011;58572;48.110;19.838;2023-07-22T00:10:59;5.95;;;3.58;;
70920;SDS011;58572;48.110;19.838;2023-07-22T00:13:27;5.90;;;3.60;;
70920;SDS011;58572;48.110;19.838;2023-07-22T00:15:54;6.32;;;3.05;;
70920;SDS011;58572;48.110;19.838;2023-07-22T00:18:24;8.65;;;3.22;;
70920;SDS011;58572;48.110;19.838;2023-07-22T00:20:52;5.97;;;3.25;;
70920;SDS011;58572;48.110;19.838;2023-07-22T00:23:21;4.88;;;3.17;;
70920;SDS011;58572;48.110;19.838;2023-07-22T00:25:49;5.18;;;3.50;;
70920;SDS011;58572;48.110;19.838;2023-07-22T00:28:17;8.55;;;4.40;;
70920;SDS011;58572;48.110;19.838;2023-07-22T00:30:44;4.50;;;3.15;;
70920;SDS011;58572;48.110;19.838;2023-07-22T00:33:14;6.88;;;3.30;;
70920;SDS011;58572;48.110;19.838;2023-07-22T00:35:41;6.63;;;3.90;;
70920;SDS011;58572;48.110;19.838;2023-07-22T00:38:09;5.00;;;3.22;;
70920;SDS011;58572;48.110;19.838;2023-07-22T00:43:05;6.38;;;3.05;;
70920;SDS011;58572;48.110;19.838;2023-07-22T00:47:59;5.55;;;3.17;;
70920;SDS011;58572;48.110;19.838;2023-07-22T00:50:27;5.22;;;3.83;;
70920;SDS011;58572;48.110;19.838;2023-07-22T00:52:54;7.18;;;3.30;;
70920;SDS011;58572;48.110;19.838;2023-07-22T00:55:21;5.15;;;3.25;;
70920;SDS011;58572;48.110;19.838;2023-07-22T00:57:51;5.28;;;3.53;;
70920;SDS011;58572;48.110;19.838;2023-07-22T01:00:19;4.45;;;3.15;;
70920;SDS011;58572;48.110;19.838;2023-07-22T01:02:46;4.15;;;2.80;;
70920;SDS011;58572;48.110;19.838;2023-07-22T01:05:14;5.32;;;2.88;;
70920;SDS011;58572;48.110;19.838;2023-07-22T01:07:42;5.72;;;3.03;;
70920;SDS011;58572;48.110;19.838;2023-07-22T01:10:09;5.00;;;3.30;;
70920;SDS011;58572;48.110;19.838;2023-07-22T01:15:06;4.68;;;2.90;;
70920;SDS011;58572;48.110;19.838;2023-07-22T01:17:34;5.70;;;2.83;;
70920;SDS011;58572;48.110;19.838;2023-07-22T01:20:05;6.30;;;2.80;;
70920;SDS011;58572;48.110;19.838;2023-07-22T01:22:34;4.18;;;3.05;;
70920;SDS011;58572;48.110;19.838;2023-07-22T01:25:05;5.95;;;3.05;;
70920;SDS011;58572;48.110;19.838;2023-07-22T01:27:33;4.47;;;2.92;;
70920;SDS011;58572;48.110;19.838;2023-07-22T01:30:01;4.43;;;3.00;;
70920;SDS011;58572;48.110;19.838;2023-07-22T01:32:29;5.10;;;3.30;;
70920;SDS011;58572;48.110;19.838;2023-07-22T01:34:56;6.35;;;2.92;;
70920;SDS011;58572;48.110;19.838;2023-07-22T01:37:24;6.30;;;3.40;;
70920;SDS011;58572;48.110;19.838;2023-07-22T01:39:51;5.50;;;2.97;;
70920;SDS011;58572;48.110;19.838;2023-07-22T01:42:23;6.05;;;2.72;;
70920;SDS011;58572;48.110;19.838;2023-07-22T01:44:52;4.07;;;2.90;;
70920;SDS011;58572;48.110;19.838;2023-07-22T01:47:20;5.70;;;2.65;;
70920;SDS011;58572;48.110;19.838;2023-07-22T01:49:47;4.10;;;2.67;;
70920;SDS011;58572;48.110;19.838;2023-07-22T01:54:42;4.68;;;2.65;;
70920;SDS011;58572;48.110;19.838;2023-07-22T01:57:09;3.97;;;2.60;;
70920;SDS011;58572;48.110;19.838;2023-07-22T01:59:38;5.63;;;3.17;;
70920;SDS011;58572;48.110;19.838;2023-07-22T02:02:06;5.82;;;2.70;;
70920;SDS011;58572;48.110;19.838;2023-07-22T02:04:33;5.80;;;3.15;;
70920;SDS011;58572;48.110;19.838;2023-07-22T02:07:01;5.32;;;3.22;;
70920;SDS011;58572;48.110;19.838;2023-07-22T02:09:29;5.00;;;2.95;;
70920;SDS011;58572;48.110;19.838;2023-07-22T02:11:58;7.15;;;2.85;;
70920;SDS011;58572;48.110;19.838;2023-07-22T02:16:53;3.60;;;2.50;;
70920;SDS011;58572;48.110;19.838;2023-07-22T02:19:21;5.68;;;2.65;;
70920;SDS011;58572;48.110;19.838;2023-07-22T02:24:15;4.13;;;2.45;;
70920;SDS011;58572;48.110;19.838;2023-07-22T02:26:43;6.00;;;3.50;;
70920;SDS011;58572;48.110;19.838;2023-07-22T02:29:10;5.10;;;3.22;;
70920;SDS011;58572;48.110;19.838;2023-07-22T02:31:38;5.65;;;3.53;;
70920;SDS011;58572;48.110;19.838;2023-07-22T02:34:08;14.93;;;3.10;;
70920;SDS011;58572;48.110;19.838;2023-07-22T02:36:35;44.97;;;4.60;;
70920;SDS011;58572;48.110;19.838;2023-07-22T02:41:32;5.68;;;3.60;;
70920;SDS011;58572;48.110;19.838;2023-07-22T02:43:59;5.93;;;3.22;;
70920;SDS011;58572;48.110;19.838;2023-07-22T02:46:28;5.95;;;3.40;;
70920;SDS011;58572;48.110;19.838;2023-07-22T02:48:56;4.57;;;2.90;;
70920;SDS011;58572;48.110;19.838;2023-07-22T02:51:25;4.15;;;3.13;;
70920;SDS011;58572;48.110;19.838;2023-07-22T02:53:53;4.80;;;2.65;;
70920;SDS011;58572;48.110;19.838;2023-07-22T02:56:20;4.55;;;3.50;;
70920;SDS011;58572;48.110;19.838;2023-07-22T02:58:49;5.20;;;3.40;;
70920;SDS011;58572;48.110;19.838;2023-07-22T03:01:16;5.20;;;3.15;;
70920;SDS011;58572;48.110;19.838;2023-07-22T03:03:44;3.92;;;2.80;;
70920;SDS011;58572;48.110;19.838;2023-07-22T03:06:13;4.57;;;2.90;;
70920;SDS011;58572;48.110;19.838;2023-07-22T03:08:42;8.95;;;3.08;;
70920;SDS011;58572;48.110;19.838;2023-07-22T03:11:09;5.13;;;3.10;;
70920;SDS011;58572;48.110;19.838;2023-07-22T03:13:37;5.72;;;3.10;;
70920;SDS011;58572;48.110;19.838;2023-07-22T03:18:32;4.00;;;2.80;;
70920;SDS011;58572;48.110;19.838;2023-07-22T03:20:59;4.05;;;3.03;;
70920;SDS011;58572;48.110;19.838;2023-07-22T03:25:55;5.47;;;2.90;;
70920;SDS011;58572;48.110;19.838;2023-07-22T03:28:23;3.78;;;2.80;;
70920;SDS011;58572;48.110;19.838;2023-07-22T03:30:52;3.85;;;3.00;;
70920;SDS011;58572;48.110;19.838;2023-07-22T03:33:19;3.45;;;2.58;;
70920;SDS011;58572;48.110;19.838;2023-07-22T03:35:47;4.38;;;3.30;;
70920;SDS011;58572;48.110;19.838;2023-07-22T03:38:14;3.78;;;2.92;;
70920;SDS011;58572;48.110;19.838;2023-07-22T03:40:42;4.47;;;2.92;;
70920;SDS011;58572;48.110;19.838;2023-07-22T03:43:13;4.70;;;3.20;;
70920;SDS011;58572;48.110;19.838;2023-07-22T03:45:41;3.45;;;2.50;;
70920;SDS011;58572;48.110;19.838;2023-07-22T03:48:09;4.97;;;3.53;;
70920;SDS011;58572;48.110;19.838;2023-07-22T03:50:37;6.47;;;3.10;;
70920;SDS011;58572;48.110;19.838;2023-07-22T03:53:06;4.03;;;2.78;;
70920;SDS011;58572;48.110;19.838;2023-07-22T03:55:34;5.13;;;3.33;;
70920;SDS011;58572;48.110;19.838;2023-07-22T03:58:01;6.10;;;3.35;;
70920;SDS011;58572;48.110;19.838;2023-07-22T04:02:57;3.90;;;2.85;;
70920;SDS011;58572;48.110;19.838;2023-07-22T04:05:25;10.40;;;2.90;;
70920;SDS011;58572;48.110;19.838;2023-07-22T04:10:19;4.18;;;3.13;;
70920;SDS011;58572;48.110;19.838;2023-07-22T04:12:47;3.92;;;3.03;;
70920;SDS011;58572;48.110;19.838;2023-07-22T04:17:44;3.67;;;2.80;;
70920;SDS011;58572;48.110;19.838;2023-07-22T04:20:12;3.70;;;2.90;;
70920;SDS011;58572;48.110;19.838;2023-07-22T04:22:40;4.22;;;3.03;;
70920;SDS011;58572;48.110;19.838;2023-07-22T04:25:08;4.68;;;3.15;;
70920;SDS011;58572;48.110;19.838;2023-07-22T04:27:35;4.05;;;3.20;;
70920;SDS011;58572;48.110;19.838;2023-07-22T04:30:03;4.93;;;3.58;;
70920;SDS011;58572;48.110;19.838;2023-07-22T04:32:32;5.18;;;3.47;;
70920;SDS011;58572;48.110;19.838;2023-07-22T04:35:01;4.40;;;3.42;;
70920;SDS011;58572;48.110;19.838;2023-07-22T04:37:30;5.05;;;3.92;;
70920;SDS011;58572;48.110;19.838;2023-07-22T04:39:58;6.35;;;4.25;;
70920;SDS011;58572;48.110;19.838;2023-07-22T04:44:52;6.82;;;4.38;;
70920;SDS011;58572;48.110;19.838;2023-07-22T04:49:47;9.25;;;4.55;;
70920;SDS011;58572;48.110;19.838;2023-07-22T04:52:16;6.95;;;4.03;;
70920;SDS011;58572;48.110;19.838;2023-07-22T04:54:44;6.82;;;4.72;;
70920;SDS011;58572;48.110;19.838;2023-07-22T04:57:12;5.20;;;4.10;;
70920;SDS011;58572;48.110;19.838;2023-07-22T04:59:42;8.82;;;5.13;;
70920;SDS011;58572;48.110;19.838;2023-07-22T05:04:36;6.90;;;4.72;;
70920;SDS011;58572;48.110;19.838;2023-07-22T05:07:04;7.70;;;5.03;;
70920;SDS011;58572;48.110;19.838;2023-07-22T05:12:00;6.20;;;4.72;;
70920;SDS011;58572;48.110;19.838;2023-07-22T05:14:28;5.22;;;4.10;;
70920;SDS011;58572;48.110;19.838;2023-07-22T05:19:22;6.30;;;4.43;;
70920;SDS011;58572;48.110;19.838;2023-07-22T05:21:51;7.30;;;5.18;;
70920;SDS011;58572;48.110;19.838;2023-07-22T05:24:21;6.63;;;4.68;;
70920;SDS011;58572;48.110;19.838;2023-07-22T05:26:50;8.55;;;5.68;;
70920;SDS011;58572;48.110;19.838;2023-07-22T05:29:17;7.55;;;5.20;;
70920;SDS011;58572;48.110;19.838;2023-07-22T05:31:45;7.65;;;5.25;;
70920;SDS011;58572;48.110;19.838;2023-07-22T05:34:13;8.60;;;5.20;;
70920;SDS011;58572;48.110;19.838;2023-07-22T05:36:40;8.60;;;5.10;;
70920;SDS011;58572;48.110;19.838;2023-07-22T05:41:34;8.52;;;5.47;;
70920;SDS011;58572;48.110;19.838;2023-07-22T05:44:04;10.25;;;6.05;;
70920;SDS011;58572;48.110;19.838;2023-07-22T05:46:32;9.13;;;6.55;;
70920;SDS011;58572;48.110;19.838;2023-07-22T05:48:59;14.80;;;8.73;;
70920;SDS011;58572;48.110;19.838;2023-07-22T05:53:54;10.27;;;7.25;;
70920;SDS011;58572;48.110;19.838;2023-07-22T05:56:21;7.80;;;6.25;;
70920;SDS011;58572;48.110;19.838;2023-07-22T06:01:17;10.98;;;6.22;;
70920;SDS011;58572;48.110;19.838;2023-07-22T06:03:45;10.50;;;7.68;;
70920;SDS011;58572;48.110;19.838;2023-07-22T06:06:12;12.65;;;8.77;;
70920;SDS011;58572;48.110;19.838;2023-07-22T06:11:07;9.40;;;7.28;;
70920;SDS011;58572;48.110;19.838;2023-07-22T06:13:35;13.93;;;8.07;;
70920;SDS011;58572;48.110;19.838;2023-07-22T06:16:03;12.48;;;8.68;;
70920;SDS011;58572;48.110;19.838;2023-07-22T06:18:33;13.18;;;7.97;;
70920;SDS011;58572;48.110;19.838;2023-07-22T06:21:00;12.88;;;9.13;;
70920;SDS011;58572;48.110;19.838;2023-07-22T06:23:30;10.65;;;9.07;;
70920;SDS011;58572;48.110;19.838;2023-07-22T06:26:13;12.00;;;9.25;;
70920;SDS011;58572;48.110;19.838;2023-07-22T06:28:41;12.27;;;8.60;;
70920;SDS011;58572;48.110;19.838;2023-07-22T06:31:09;11.55;;;9.18;;
70920;SDS011;58572;48.110;19.838;2023-07-22T06:33:37;11.63;;;7.65;;
70920;SDS011;58572;48.110;19.838;2023-07-22T06:36:05;12.48;;;8.70;;
70920;SDS011;58572;48.110;19.838;2023-07-22T06:38:32;12.70;;;8.13;;
70920;SDS011;58572;48.110;19.838;2023-07-22T06:40:59;10.02;;;8.27;;
70920;SDS011;58572;48.110;19.838;2023-07-22T06:43:27;13.30;;;9.18;;
70920;SDS011;58572;48.110;19.838;2023-07-22T06:45:54;13.50;;;7.47;;
70920;SDS011;58572;48.110;19.838;2023-07-22T06:48:22;11.05;;;8.07;;
70920;SDS011;58572;48.110;19.838;2023-07-22T06:50:50;11.63;;;9.32;;
70920;SDS011;58572;48.110;19.838;2023-07-22T06:53:18;9.55;;;7.45;;
70920;SDS011;58572;48.110;19.838;2023-07-22T06:55:49;13.43;;;11.48;;
70920;SDS011;58572;48.110;19.838;2023-07-22T06:58:16;14.55;;;9.75;;
70920;SDS011;58572;48.110;19.838;2023-07-22T07:00:44;9.90;;;7.47;;
70920;SDS011;58572;48.110;19.838;2023-07-22T07:03:11;12.40;;;7.78;;
70920;SDS011;58572;48.110;19.838;2023-07-22T07:05:39;12.65;;;8.23;;
70920;SDS011;58572;48.110;19.838;2023-07-22T07:08:08;12.45;;;8.23;;
70920;SDS011;58572;48.110;19.838;2023-07-22T07:10:37;10.60;;;7.97;;
70920;SDS011;58572;48.110;19.838;2023-07-22T07:13:07;14.18;;;8.27;;
70920;SDS011;58572;48.110;19.838;2023-07-22T07:15:40;11.93;;;9.75;;
70920;SDS011;58572;48.110;19.838;2023-07-22T07:18:35;10.65;;;8.18;;
70920;SDS011;58572;48.110;19.838;2023-07-22T07:21:25;10.70;;;8.15;;
70920;SDS011;58572;48.110;19.838;2023-07-22T07:23:55;9.02;;;7.85;;
70920;SDS011;58572;48.110;19.838;2023-07-22T07:26:22;9.73;;;7.70;;
70920;SDS011;58572;48.110;19.838;2023-07-22T07:28:49;12.57;;;8.48;;
70920;SDS011;58572;48.110;19.838;2023-07-22T07:31:17;12.25;;;10.43;;
70920;SDS011;58572;48.110;19.838;2023-07-22T07:36:12;10.95;;;8.60;;
70920;SDS011;58572;48.110;19.838;2023-07-22T07:38:40;11.52;;;8.35;;
70920;SDS011;58572;48.110;19.838;2023-07-22T07:43:38;13.57;;;10.18;;
70920;SDS011;58572;48.110;19.838;2023-07-22T07:46:12;13.30;;;9.25;;
70920;SDS011;58572;48.110;19.838;2023-07-22T07:48:42;12.07;;;9.48;;
70920;SDS011;58572;48.110;19.838;2023-07-22T07:51:11;16.90;;;10.32;;
70920;SDS011;58572;48.110;19.838;2023-07-22T07:53:39;14.23;;;9.07;;
70920;SDS011;58572;48.110;19.838;2023-07-22T07:56:10;13.55;;;10.05;;
70920;SDS011;58572;48.110;19.838;2023-07-22T07:58:38;11.02;;;8.73;;
70920;SDS011;58572;48.110;19.838;2023-07-22T08:01:06;11.65;;;9.30;;
70920;SDS011;58572;48.110;19.838;2023-07-22T08:03:34;11.40;;;8.82;;
70920;SDS011;58572;48.110;19.838;2023-07-22T08:06:02;13.02;;;8.77;;
70920;SDS011;58572;48.110;19.838;2023-07-22T08:08:30;13.82;;;9.20;;
70920;SDS011;58572;48.110;19.838;2023-07-22T08:11:03;13.25;;;9.85;;
70920;SDS011;58572;48.110;19.838;2023-07-22T08:13:54;13.00;;;9.55;;
70920;SDS011;58572;48.110;19.838;2023-07-22T08:16:21;11.57;;;8.88;;
70920;SDS011;58572;48.110;19.838;2023-07-22T08:18:49;13.40;;;9.43;;
70920;SDS011;58572;48.110;19.838;2023-07-22T08:21:17;12.32;;;8.55;;
70920;SDS011;58572;48.110;19.838;2023-07-22T08:23:45;13.82;;;9.57;;
70920;SDS011;58572;48.110;19.838;2023-07-22T08:26:13;10.70;;;8.18;;
70920;SDS011;58572;48.110;19.838;2023-07-22T08:28:43;11.75;;;9.05;;
70920;SDS011;58572;48.110;19.838;2023-07-22T08:31:12;14.63;;;8.82;;
70920;SDS011;58572;48.110;19.838;2023-07-22T08:33:39;11.30;;;7.90;;
70920;SDS011;58572;48.110;19.838;2023-07-22T08:36:07;11.80;;;8.48;;
70920;SDS011;58572;48.110;19.838;2023-07-22T08:38:35;11.52;;;8.40;;
70920;SDS011;58572;48.110;19.838;2023-07-22T08:41:03;11.38;;;7.55;;
70920;SDS011;58572;48.110;19.838;2023-07-22T08:43:30;11.25;;;8.15;;
70920;SDS011;58572;48.110;19.838;2023-07-22T08:46:01;10.02;;;7.40;;
70920;SDS011;58572;48.110;19.838;2023-07-22T08:48:31;10.90;;;8.27;;
70920;SDS011;58572;48.110;19.838;2023-07-22T08:51:02;10.10;;;7.55;;
70920;SDS011;58572;48.110;19.838;2023-07-22T08:53:31;10.27;;;6.80;;
70920;SDS011;58572;48.110;19.838;2023-07-22T08:55:59;10.75;;;8.52;;
70920;SDS011;58572;48.110;19.838;2023-07-22T08:58:27;13.70;;;8.60;;
70920;SDS011;58572;48.110;19.838;2023-07-22T09:00:55;10.60;;;7.72;;
70920;SDS011;58572;48.110;19.838;2023-07-22T09:03:24;10.50;;;8.30;;
70920;SDS011;58572;48.110;19.838;2023-07-22T09:05:53;12.73;;;8.30;;
70920;SDS011;58572;48.110;19.838;2023-07-22T09:08:22;11.85;;;7.95;;
70920;SDS011;58572;48.110;19.838;2023-07-22T09:10:49;11.98;;;8.55;;
70920;SDS011;58572;48.110;19.838;2023-07-22T09:13:16;13.63;;;8.02;;
70920;SDS011;58572;48.110;19.838;2023-07-22T09:15:47;12.23;;;8.90;;
70920;SDS011;58572;48.110;19.838;2023-07-22T09:18:14;11.00;;;8.85;;
70920;SDS011;58572;48.110;19.838;2023-07-22T09:20:42;10.75;;;7.82;;
70920;SDS011;58572;48.110;19.838;2023-07-22T09:23:11;12.18;;;8.02;;
70920;SDS011;58572;48.110;19.838;2023-07-22T09:25:39;12.40;;;8.13;;
70920;SDS011;58572;48.110;19.838;2023-07-22T09:28:06;11.05;;;7.25;;
70920;SDS011;58572;48.110;19.838;2023-07-22T09:30:35;9.80;;;7.57;;
70920;SDS011;58572;48.110;19.838;2023-07-22T09:33:04;10.02;;;7.35;;
70920;SDS011;58572;48.110;19.838;2023-07-22T09:35:42;11.20;;;7.85;;
70920;SDS011;58572;48.110;19.838;2023-07-22T09:40:40;10.18;;;7.35;;
70920;SDS011;58572;48.110;19.838;2023-07-22T09:43:11;10.02;;;7.25;;
70920;SDS011;58572;48.110;19.838;2023-07-22T09:45:49;11.68;;;7.90;;
70920;SDS011;58572;48.110;19.838;2023-07-22T09:48:17;9.43;;;7.53;;
70920;SDS011;58572;48.110;19.838;2023-07-22T09:50:45;8.55;;;6.72;;
70920;SDS011;58572;48.110;19.838;2023-07-22T09:55:43;8.32;;;6.75;;
70920;SDS011;58572;48.110;19.838;2023-07-22T09:58:10;8.82;;;6.63;;
70920;SDS011;58572;48.110;19.838;2023-07-22T10:00:39;8.18;;;6.30;;
70920;SDS011;58572;48.110;19.838;2023-07-22T10:03:12;8.82;;;6.95;;
70920;SDS011;58572;48.110;19.838;2023-07-22T10:05:42;9.30;;;6.75;;
70920;SDS011;58572;48.110;19.838;2023-07-22T10:08:12;6.85;;;4.63;;
70920;SDS011;58572;48.110;19.838;2023-07-22T10:10:45;10.82;;;5.53;;
70920;SDS011;58572;48.110;19.838;2023-07-22T10:13:14;7.50;;;5.68;;
70920;SDS011;58572;48.110;19.838;2023-07-22T10:15:42;8.20;;;6.15;;
70920;SDS011;58572;48.110;19.838;2023-07-22T10:18:12;8.20;;;5.68;;
70920;SDS011;58572;48.110;19.838;2023-07-22T10:20:39;7.50;;;5.65;;
70920;SDS011;58572;48.110;19.838;2023-07-22T10:23:08;6.25;;;5.25;;
70920;SDS011;58572;48.110;19.838;2023-07-22T10:25:38;7.20;;;5.18;;
70920;SDS011;58572;48.110;19.838;2023-07-22T10:28:06;8.57;;;5.57;;
70920;SDS011;58572;48.110;19.838;2023-07-22T10:30:33;7.20;;;5.28;;
70920;SDS011;58572;48.110;19.838;2023-07-22T10:33:01;7.85;;;5.35;;
70920;SDS011;58572;48.110;19.838;2023-07-22T10:35:34;8.20;;;5.43;;
70920;SDS011;58572;48.110;19.838;2023-07-22T10:38:08;7.53;;;4.70;;
70920;SDS011;58572;48.110;19.838;2023-07-22T10:40:45;7.18;;;4.80;;
70920;SDS011;58572;48.110;19.838;2023-07-22T10:43:15;7.35;;;5.22;;
70920;SDS011;58572;48.110;19.838;2023-07-22T10:45:49;6.53;;;4.80;;
70920;SDS011;58572;48.110;19.838;2023-07-22T10:48:17;9.88;;;5.20;;
70920;SDS011;58572;48.110;19.838;2023-07-22T10:50:46;7.10;;;4.45;;
70920;SDS011;58572;48.110;19.838;2023-07-22T10:53:20;5.75;;;4.50;;
70920;SDS011;58572;48.110;19.838;2023-07-22T10:56:14;6.15;;;4.35;;
70920;SDS011;58572;48.110;19.838;2023-07-22T10:59:00;10.95;;;5.38;;
70920;SDS011;58572;48.110;19.838;2023-07-22T11:01:32;7.97;;;4.72;;
70920;SDS011;58572;48.110;19.838;2023-07-22T11:04:07;6.45;;;4.53;;
70920;SDS011;58572;48.110;19.838;2023-07-22T11:06:54;10.07;;;4.80;;
70920;SDS011;58572;48.110;19.838;2023-07-22T11:09:35;5.82;;;4.22;;
70920;SDS011;58572;48.110;19.838;2023-07-22T11:12:08;5.20;;;3.95;;
70920;SDS011;58572;48.110;19.838;2023-07-22T11:14:38;5.47;;;4.78;;
70920;SDS011;58572;48.110;19.838;2023-07-22T11:17:07;5.70;;;4.25;;
70920;SDS011;58572;48.110;19.838;2023-07-22T11:19:36;8.07;;;4.07;;
70920;SDS011;58572;48.110;19.838;2023-07-22T11:22:04;5.93;;;4.07;;
70920;SDS011;58572;48.110;19.838;2023-07-22T11:24:32;6.25;;;3.58;;
70920;SDS011;58572;48.110;19.838;2023-07-22T11:27:02;6.22;;;3.95;;
70920;SDS011;58572;48.110;19.838;2023-07-22T11:29:31;4.97;;;3.72;;
70920;SDS011;58572;48.110;19.838;2023-07-22T11:31:59;5.38;;;3.65;;
70920;SDS011;58572;48.110;19.838;2023-07-22T11:34:26;6.00;;;3.47;;
70920;SDS011;58572;48.110;19.838;2023-07-22T11:36:55;5.03;;;3.15;;
70920;SDS011;58572;48.110;19.838;2023-07-22T11:39:24;5.93;;;3.30;;
70920;SDS011;58572;48.110;19.838;2023-07-22T11:41:52;4.72;;;3.20;;
70920;SDS011;58572;48.110;19.838;2023-07-22T11:44:20;5.15;;;3.15;;
70920;SDS011;58572;48.110;19.838;2023-07-22T11:46:51;5.65;;;3.42;;
70920;SDS011;58572;48.110;19.838;2023-07-22T11:49:25;4.47;;;3.10;;
70920;SDS011;58572;48.110;19.838;2023-07-22T11:51:54;5.63;;;3.08;;
70920;SDS011;58572;48.110;19.838;2023-07-22T11:54:22;5.20;;;2.85;;
70920;SDS011;58572;48.110;19.838;2023-07-22T11:56:49;5.20;;;2.75;;
70920;SDS011;58572;48.110;19.838;2023-07-22T11:59:17;5.63;;;3.45;;
70920;SDS011;58572;48.110;19.838;2023-07-22T12:02:01;4.82;;;2.80;;
70920;SDS011;58572;48.110;19.838;2023-07-22T12:04:30;7.05;;;2.67;;
70920;SDS011;58572;48.110;19.838;2023-07-22T12:06:58;7.00;;;3.13;;
70920;SDS011;58572;48.110;19.838;2023-07-22T12:09:26;6.82;;;3.70;;
70920;SDS011;58572;48.110;19.838;2023-07-22T12:11:57;49.92;;;30.95;;
70920;SDS011;58572;48.110;19.838;2023-07-22T12:14:31;8.32;;;5.35;;
70920;SDS011;58572;48.110;19.838;2023-07-22T12:17:02;14.23;;;10.27;;
70920;SDS011;58572;48.110;19.838;2023-07-22T12:19:29;5.88;;;3.70;;
70920;SDS011;58572;48.110;19.838;2023-07-22T12:21:57;4.00;;;2.60;;
70920;SDS011;58572;48.110;19.838;2023-07-22T12:24:24;4.13;;;2.72;;
70920;SDS011;58572;48.110;19.838;2023-07-22T12:26:53;5.07;;;2.60;;
70920;SDS011;58572;48.110;19.838;2023-07-22T12:31:48;4.03;;;2.70;;
70920;SDS011;58572;48.110;19.838;2023-07-22T12:36:44;3.65;;;2.58;;
70920;SDS011;58572;48.110;19.838;2023-07-22T12:39:11;4.13;;;2.40;;
70920;SDS011;58572;48.110;19.838;2023-07-22T12:44:05;4.47;;;2.72;;
70920;SDS011;58572;48.110;19.838;2023-07-22T12:46:32;4.38;;;2.45;;
70920;SDS011;58572;48.110;19.838;2023-07-22T12:49:00;7.10;;;3.35;;
70920;SDS011;58572;48.110;19.838;2023-07-22T12:51:29;6.70;;;2.78;;
70920;SDS011;58572;48.110;19.838;2023-07-22T12:53:56;4.07;;;2.50;;
70920;SDS011;58572;48.110;19.838;2023-07-22T12:58:51;5.15;;;2.40;;
70920;SDS011;58572;48.110;19.838;2023-07-22T13:01:18;3.78;;;2.30;;
70920;SDS011;58572;48.110;19.838;2023-07-22T13:03:45;4.78;;;2.30;;
70920;SDS011;58572;48.110;19.838;2023-07-22T13:06:13;4.68;;;2.30;;
70920;SDS011;58572;48.110;19.838;2023-07-22T13:11:09;3.97;;;2.38;;
70920;SDS011;58572;48.110;19.838;2023-07-22T13:13:37;2.90;;;1.90;;
70920;SDS011;58572;48.110;19.838;2023-07-22T13:16:04;5.18;;;2.15;;
70920;SDS011;58572;48.110;19.838;2023-07-22T13:18:32;5.07;;;2.40;;
70920;SDS011;58572;48.110;19.838;2023-07-22T13:21:01;3.22;;;2.10;;
70920;SDS011;58572;48.110;19.838;2023-07-22T13:23:51;3.40;;;2.08;;
70920;SDS011;58572;48.110;19.838;2023-07-22T13:26:19;3.80;;;2.25;;
70920;SDS011;58572;48.110;19.838;2023-07-22T13:31:13;4.13;;;2.00;;
70920;SDS011;58572;48.110;19.838;2023-07-22T13:33:40;3.17;;;1.90;;
70920;SDS011;58572;48.110;19.838;2023-07-22T13:38:35;4.20;;;1.95;;
70920;SDS011;58572;48.110;19.838;2023-07-22T13:41:04;3.67;;;2.00;;
70920;SDS011;58572;48.110;19.838;2023-07-22T13:43:31;3.05;;;1.83;;
70920;SDS011;58572;48.110;19.838;2023-07-22T13:46:00;3.70;;;1.90;;
70920;SDS011;58572;48.110;19.838;2023-07-22T13:48:38;5.47;;;1.95;;
70920;SDS011;58572;48.110;19.838;2023-07-22T13:51:17;4.45;;;2.00;;
70920;SDS011;58572;48.110;19.838;2023-07-22T13:53:55;3.30;;;1.98;;
70920;SDS011;58572;48.110;19.838;2023-07-22T13:57:19;3.30;;;1.77;;
70920;SDS011;58572;48.110;19.838;2023-07-22T13:59:53;3.65;;;1.73;;
70920;SDS011;58572;48.110;19.838;2023-07-22T14:02:26;3.00;;;1.67;;
70920;SDS011;58572;48.110;19.838;2023-07-22T14:05:01;3.53;;;1.85;;
70920;SDS011;58572;48.110;19.838;2023-07-22T14:07:28;4.15;;;1.92;;
70920;SDS011;58572;48.110;19.838;2023-07-22T14:09:55;4.05;;;1.80;;
70920;SDS011;58572;48.110;19.838;2023-07-22T14:12:24;3.10;;;1.67;;
70920;SDS011;58572;48.110;19.838;2023-07-22T14:14:51;3.53;;;2.03;;
70920;SDS011;58572;48.110;19.838;2023-07-22T14:19:45;5.20;;;2.13;;
70920;SDS011;58572;48.110;19.838;2023-07-22T14:22:13;3.78;;;1.90;;
70920;SDS011;58572;48.110;19.838;2023-07-22T14:24:40;4.45;;;1.85;;
70920;SDS011;58572;48.110;19.838;2023-07-22T14:27:08;6.07;;;1.90;;
70920;SDS011;58572;48.110;19.838;2023-07-22T14:29:37;4.63;;;1.90;;
70920;SDS011;58572;48.110;19.838;2023-07-22T14:32:04;3.50;;;1.73;;
70920;SDS011;58572;48.110;19.838;2023-07-22T14:34:32;3.63;;;2.20;;
70920;SDS011;58572;48.110;19.838;2023-07-22T14:37:00;4.95;;;1.70;;
70920;SDS011;58572;48.110;19.838;2023-07-22T14:39:29;3.85;;;1.77;;
70920;SDS011;58572;48.110;19.838;2023-07-22T14:41:56;4.03;;;1.65;;
70920;SDS011;58572;48.110;19.838;2023-07-22T14:44:23;3.58;;;1.58;;
70920;SDS011;58572;48.110;19.838;2023-07-22T14:46:52;3.00;;;1.60;;
70920;SDS011;58572;48.110;19.838;2023-07-22T14:49:19;3.38;;;1.58;;
70920;SDS011;58572;48.110;19.838;2023-07-22T14:51:47;3.03;;;1.60;;
70920;SDS011;58572;48.110;19.838;2023-07-22T14:54:14;3.33;;;1.60;;
70920;SDS011;58572;48.110;19.838;2023-07-22T14:56:42;3.03;;;1.70;;
70920;SDS011;58572;48.110;19.838;2023-07-22T14:59:09;4.88;;;1.63;;
70920;SDS011;58572;48.110;19.838;2023-07-22T15:01:38;3.58;;;1.60;;
70920;SDS011;58572;48.110;19.838;2023-07-22T15:04:08;3.67;;;1.55;;
70920;SDS011;58572;48.110;19.838;2023-07-22T15:06:36;2.60;;;1.42;;
70920;SDS011;58572;48.110;19.838;2023-07-22T15:09:03;3.65;;;1.60;;
70920;SDS011;58572;48.110;19.838;2023-07-22T15:11:34;3.67;;;1.40;;
70920;SDS011;58572;48.110;19.838;2023-07-22T15:14:01;3.88;;;1.63;;
70920;SDS011;58572;48.110;19.838;2023-07-22T15:16:29;2.95;;;1.52;;
70920;SDS011;58572;48.110;19.838;2023-07-22T15:18:57;4.57;;;1.50;;
70920;SDS011;58572;48.110;19.838;2023-07-22T15:21:26;7.55;;;1.98;;
70920;SDS011;58572;48.110;19.838;2023-07-22T15:23:53;4.15;;;2.00;;
70920;SDS011;58572;48.110;19.838;2023-07-22T15:26:21;5.10;;;1.60;;
70920;SDS011;58572;48.110;19.838;2023-07-22T15:28:48;3.35;;;1.67;;
70920;SDS011;58572;48.110;19.838;2023-07-22T15:31:16;4.32;;;1.83;;
70920;SDS011;58572;48.110;19.838;2023-07-22T15:33:44;7.75;;;2.00;;
70920;SDS011;58572;48.110;19.838;2023-07-22T15:36:12;3.22;;;1.67;;
70920;SDS011;58572;48.110;19.838;2023-07-22T15:38:41;5.93;;;1.52;;
70920;SDS011;58572;48.110;19.838;2023-07-22T15:41:08;2.95;;;1.80;;
70920;SDS011;58572;48.110;19.838;2023-07-22T15:43:35;3.65;;;1.30;;
70920;SDS011;58572;48.110;19.838;2023-07-22T15:46:03;3.10;;;1.50;;
70920;SDS011;58572;48.110;19.838;2023-07-22T15:48:30;4.75;;;1.45;;
70920;SDS011;58572;48.110;19.838;2023-07-22T15:50:57;5.43;;;1.25;;
70920;SDS011;58572;48.110;19.838;2023-07-22T15:53:25;5.57;;;1.30;;
70920;SDS011;58572;48.110;19.838;2023-07-22T15:55:54;5.07;;;1.50;;
70920;SDS011;58572;48.110;19.838;2023-07-22T15:58:21;5.82;;;1.48;;
70920;SDS011;58572;48.110;19.838;2023-07-22T16:00:48;2.88;;;1.45;;
70920;SDS011;58572;48.110;19.838;2023-07-22T16:03:16;4.57;;;2.13;;